Time;durP1;ratioP1;P1;durP2;ratioP2;P2;SDS_P1;SDS_P2;PMS_P1;PMS_P2;Temp;Humidity;BMP_temperature;BMP_pressure;BME280_temperature;BME280_humidity;BME280_pressure;Samples;Min_cycle;Max_cycle;Signal;HPM_P1;HPM_P2
2022/07/26 00:02:17;;;;;;;17.40;3.05;;;;;;;19.48;88.40;101183.53;4994822;28;20035;-69
2022/07/26 00:04:43;;;;;;;19.17;3.17;;;;;;;19.63;87.18;101180.38;4995641;28;20023;-69
2022/07/26 00:07:08;;;;;;;25.55;3.55;;;;;;;19.52;87.27;101195.13;4995870;28;20027;-69
2022/07/26 00:09:33;;;;;;;22.52;3.63;;;;;;;19.44;88.67;101192.88;4996107;28;20229;-69
2022/07/26 00:11:59;;;;;;;15.88;3.35;;;;;;;19.46;87.99;101201.31;4995917;28;20339;-70
2022/07/26 00:14:24;;;;;;;16.75;3.00;;;;;;;19.43;88.99;101195.75;4995738;28;20073;-69
2022/07/26 00:16:50;;;;;;;18.23;3.33;;;;;;;19.49;88.36;101207.91;4995962;28;20033;-69
2022/07/26 00:19:15;;;;;;;19.17;3.53;;;;;;;19.49;88.43;101206.09;4995718;28;20052;-69
2022/07/26 00:21:40;;;;;;;20.95;3.55;;;;;;;19.53;88.05;101204.56;4995717;28;20109;-69
2022/07/26 00:24:06;;;;;;;17.10;2.90;;;;;;;19.55;88.31;101206.97;4995632;28;20457;-69
2022/07/26 00:26:32;;;;;;;21.83;3.72;;;;;;;19.54;87.54;101208.78;4995398;28;20065;-69
2022/07/26 00:28:58;;;;;;;20.17;3.25;;;;;;;19.69;87.45;101204.88;4993456;28;20109;-69
2022/07/26 00:31:23;;;;;;;19.48;3.45;;;;;;;19.70;86.77;101202.00;4993429;28;20028;-69
2022/07/26 00:33:49;;;;;;;19.23;3.45;;;;;;;19.63;86.79;101219.69;4994578;28;20533;-72
2022/07/26 00:36:14;;;;;;;20.20;3.42;;;;;;;19.65;86.54;101214.19;4994404;28;20054;-68
2022/07/26 00:38:39;;;;;;;17.50;2.90;;;;;;;19.70;86.25;101217.72;4993344;28;20029;-69
2022/07/26 00:41:05;;;;;;;20.92;3.45;;;;;;;19.72;86.02;101225.38;4993753;28;20038;-69
2022/07/26 00:43:31;;;;;;;15.63;3.08;;;;;;;19.80;85.55;101228.41;4994286;28;20080;-69
2022/07/26 00:45:56;;;;;;;17.40;3.22;;;;;;;19.65;85.76;101207.19;4994499;28;20041;-69
2022/07/26 00:48:22;;;;;;;22.65;3.20;;;;;;;19.91;85.14;101220.69;4995333;28;20478;-69
2022/07/26 00:50:47;;;;;;;21.80;3.33;;;;;;;19.82;85.12;101225.53;4994029;28;20026;-69
2022/07/26 00:53:13;;;;;;;12.85;2.90;;;;;;;19.75;85.49;101219.66;4995225;28;20596;-70
2022/07/26 00:55:38;;;;;;;14.32;2.80;;;;;;;19.74;85.04;101213.63;4994024;28;20022;-69
2022/07/26 00:58:05;;;;;;;19.38;3.08;;;;;;;19.77;84.91;101231.50;4995204;28;20030;-70
2022/07/26 01:00:30;;;;;;;16.58;3.10;;;;;;;19.74;84.76;101231.97;4993042;28;20030;-69
2022/07/26 01:02:57;;;;;;;14.90;2.97;;;;;;;19.81;84.47;101229.97;4993435;28;20149;-69
2022/07/26 01:05:23;;;;;;;21.55;3.40;;;;;;;19.77;84.27;101228.09;4993896;28;20117;-69
2022/07/26 01:07:49;;;;;;;19.42;2.85;;;;;;;19.76;84.39;101224.66;4993359;28;20625;-69
2022/07/26 01:10:14;;;;;;;17.83;3.05;;;;;;;19.75;84.23;101232.78;4994692;28;20105;-70
2022/07/26 01:12:41;;;;;;;15.68;3.00;;;;;;;19.71;84.29;101224.59;4993751;28;20027;-69
2022/07/26 01:15:08;;;;;;;19.80;3.00;;;;;;;19.57;84.68;101210.94;4993643;28;20549;-69
2022/07/26 01:17:33;;;;;;;15.88;2.65;;;;;;;19.54;83.01;101224.53;4994542;28;20030;-71
2022/07/26 01:19:58;;;;;;;11.38;2.30;;;;;;;19.60;82.25;101223.59;4994398;28;20049;-70
2022/07/26 01:22:24;;;;;;;16.75;2.60;;;;;;;19.53;81.78;101219.50;4994830;28;20022;-70
2022/07/26 01:24:49;;;;;;;15.43;2.88;;;;;;;19.42;80.95;101220.34;4994352;28;20113;-70
2022/07/26 01:27:14;;;;;;;7.80;2.10;;;;;;;19.42;81.25;101215.13;4994640;28;20022;-70
2022/07/26 01:29:40;;;;;;;8.48;2.17;;;;;;;19.48;80.53;101222.03;4994745;28;20377;-69
2022/07/26 01:32:05;;;;;;;8.57;2.22;;;;;;;19.43;80.03;101220.13;4993138;28;20470;-70
2022/07/26 01:34:31;;;;;;;10.73;1.83;;;;;;;19.41;80.15;101229.25;4993152;28;20057;-69
2022/07/26 01:36:57;;;;;;;10.32;2.38;;;;;;;19.43;79.92;101230.63;4993384;28;20030;-69
2022/07/26 01:39:22;;;;;;;8.63;1.98;;;;;;;19.41;79.75;101231.88;4993267;28;20023;-69
2022/07/26 01:41:47;;;;;;;8.15;2.08;;;;;;;19.29;80.01;101226.69;4994502;28;20038;-70
2022/07/26 01:44:13;;;;;;;11.77;2.00;;;;;;;19.26;80.25;101225.31;4994224;28;20045;-69
2022/07/26 01:46:38;;;;;;;8.82;1.95;;;;;;;19.26;80.12;101230.56;4994259;28;20018;-70
2022/07/26 01:49:05;;;;;;;7.75;1.80;;;;;;;19.22;80.29;101232.06;4994365;28;20030;-70
2022/07/26 01:51:31;;;;;;;10.05;1.73;;;;;;;19.23;80.83;101228.41;4994194;28;20038;-71
2022/07/26 01:53:56;;;;;;;8.30;1.80;;;;;;;19.15;80.62;101223.53;4992953;28;20022;-70
2022/07/26 01:56:22;;;;;;;6.63;1.90;;;;;;;19.15;80.35;101226.16;4994276;28;20026;-69
2022/07/26 01:58:47;;;;;;;8.70;2.00;;;;;;;19.12;80.69;101237.09;4994398;28;20374;-71
2022/07/26 02:01:12;;;;;;;8.77;1.98;;;;;;;19.07;80.75;101234.38;4994257;28;20026;-69
2022/07/26 02:03:37;;;;;;;5.75;2.00;;;;;;;18.98;80.72;101235.78;4994184;28;20027;-70
2022/07/26 02:06:04;;;;;;;6.13;1.83;;;;;;;18.92;81.36;101237.50;4994376;28;20078;-69
2022/07/26 02:08:29;;;;;;;7.38;2.35;;;;;;;18.97;80.88;101244.66;4993064;28;20018;-70
2022/07/26 02:11:01;;;;;;;8.20;1.70;;;;;;;18.82;81.06;101243.31;4994100;28;20033;-70
2022/07/26 02:13:34;;;;;;;6.75;1.80;;;;;;;18.82;81.32;101243.31;4994317;28;20022;-69
2022/07/26 02:16:01;;;;;;;5.82;1.80;;;;;;;18.83;81.37;101242.28;4992548;28;20026;-70
2022/07/26 02:18:28;;;;;;;9.80;1.90;;;;;;;18.73;82.21;101236.81;4992638;28;20030;-69
2022/07/26 02:20:54;;;;;;;9.13;1.88;;;;;;;18.63;82.06;101237.38;4994075;28;20032;-69
2022/07/26 02:23:20;;;;;;;4.63;1.90;;;;;;;18.67;81.86;101240.34;4993736;28;20022;-69
2022/07/26 02:25:46;;;;;;;8.77;1.77;;;;;;;18.55;82.50;101240.34;4992636;28;20028;-70
2022/07/26 02:28:12;;;;;;;9.00;1.80;;;;;;;18.55;82.91;101247.41;4993994;28;20098;-70
2022/07/26 02:30:37;;;;;;;4.43;1.63;;;;;;;18.53;83.22;101242.41;4994095;28;20038;-69
2022/07/26 02:33:03;;;;;;;4.82;1.70;;;;;;;18.58;83.04;101241.72;4994028;28;20026;-70
2022/07/26 02:35:30;;;;;;;6.03;1.70;;;;;;;18.61;82.84;101247.28;4992635;28;20170;-70
2022/07/26 02:38:01;;;;;;;9.55;1.90;;;;;;;18.45;83.77;101251.41;4993936;28;20026;-70
2022/07/26 02:40:27;;;;;;;9.75;1.80;;;;;;;18.49;83.75;101252.53;4992807;28;20402;-70
2022/07/26 02:42:52;;;;;;;9.90;1.80;;;;;;;18.35;84.36;101260.81;4992614;28;20023;-69
2022/07/26 02:45:17;;;;;;;7.90;2.00;;;;;;;18.40;84.18;101250.50;4992328;28;20027;-69
2022/07/26 02:47:50;;;;;;;6.22;1.80;;;;;;;18.31;84.96;101264.94;4992490;28;20440;-70
2022/07/26 02:50:17;;;;;;;5.35;1.90;;;;;;;18.11;85.61;101255.56;4993955;28;20501;-69
2022/07/26 02:52:42;;;;;;;7.25;1.98;;;;;;;18.12;86.01;101264.22;4992401;28;20023;-70
2022/07/26 02:55:08;;;;;;;6.05;1.73;;;;;;;18.15;85.85;101259.31;4993530;28;20019;-70
2022/07/26 02:57:33;;;;;;;7.18;1.63;;;;;;;18.13;86.30;101273.66;4993883;28;20029;-70
2022/07/26 02:59:59;;;;;;;7.03;1.90;;;;;;;18.15;86.05;101274.22;4993566;28;20037;-70
2022/07/26 03:02:24;;;;;;;8.63;1.67;;;;;;;18.11;86.09;101266.03;4993717;28;20019;-69
2022/07/26 03:04:49;;;;;;;6.72;1.95;;;;;;;17.97;87.04;101275.91;4995308;28;20033;-69
2022/07/26 03:07:14;;;;;;;5.95;1.75;;;;;;;17.97;86.74;101278.50;4997133;28;20081;-70
2022/07/26 03:09:40;;;;;;;7.40;1.77;;;;;;;17.96;87.18;101284.78;4997255;28;20033;-69
2022/07/26 03:12:05;;;;;;;6.88;1.75;;;;;;;17.96;87.07;101287.38;4995842;28;20026;-69
2022/07/26 03:14:31;;;;;;;5.45;1.77;;;;;;;17.98;87.01;101276.69;4997090;28;20020;-69
2022/07/26 03:16:56;;;;;;;9.13;1.90;;;;;;;17.87;87.38;101283.50;4997245;28;20161;-69
2022/07/26 03:19:21;;;;;;;8.63;2.00;;;;;;;17.89;87.47;101270.19;4996694;28;20129;-69
2022/07/26 03:22:01;;;;;;;6.88;1.75;;;;;;;17.79;87.49;101278.59;4974544;28;20085;-69
2022/07/26 03:24:27;;;;;;;10.60;2.15;;;;;;;17.68;88.52;101293.16;4995807;28;20065;-69
2022/07/26 03:26:52;;;;;;;8.38;2.00;;;;;;;17.83;87.94;101282.34;4996848;28;20022;-70
2022/07/26 03:29:17;;;;;;;7.88;1.92;;;;;;;17.78;88.40;101290.03;4996857;28;20586;-70
2022/07/26 03:31:43;;;;;;;5.68;1.80;;;;;;;17.78;88.46;101297.88;4996724;28;20105;-69
2022/07/26 03:34:08;;;;;;;4.75;1.67;;;;;;;17.73;88.63;101292.50;4995615;28;20373;-69
2022/07/26 03:36:34;;;;;;;9.13;1.95;;;;;;;17.60;89.33;101291.66;4995550;28;20089;-69
2022/07/26 03:38:59;;;;;;;20.90;2.08;;;;;;;17.60;89.87;101293.47;4996594;28;20505;-70
2022/07/26 03:41:24;;;;;;;6.40;1.75;;;;;;;17.63;89.67;101306.09;4996525;28;20064;-70
2022/07/26 03:43:50;;;;;;;9.57;2.00;;;;;;;17.70;89.06;101304.19;4996343;28;20061;-69
2022/07/26 03:46:15;;;;;;;5.10;2.00;;;;;;;17.70;89.62;101306.03;4996557;28;20097;-70
2022/07/26 03:48:40;;;;;;;7.03;1.70;;;;;;;17.70;89.48;101309.44;4996360;28;20034;-70
2022/07/26 03:51:05;;;;;;;6.50;1.77;;;;;;;17.62;90.15;101306.31;4996397;28;20082;-69
2022/07/26 03:53:31;;;;;;;7.85;2.10;;;;;;;17.57;90.16;101306.97;4996171;28;20026;-70
2022/07/26 03:58:40;;;;;;;8.20;1.90;;;;;;;17.67;89.85;101296.00;4996279;28;20073;-69
2022/07/26 04:01:05;;;;;;;9.40;1.88;;;;;;;17.55;90.57;101307.22;4996267;28;20054;-70
2022/07/26 04:03:30;;;;;;;8.20;1.85;;;;;;;17.51;91.13;101305.25;4995893;28;20037;-70
2022/07/26 04:05:56;;;;;;;4.95;2.10;;;;;;;17.47;91.52;101310.13;4996165;28;20026;-69
2022/07/26 04:08:21;;;;;;;6.22;2.05;;;;;;;17.44;92.52;101301.94;4994786;28;20023;-70
2022/07/26 04:10:49;;;;;;;4.78;1.77;;;;;;;17.68;92.24;101305.44;4994655;28;20382;-69
2022/07/26 04:13:15;;;;;;;10.43;2.35;;;;;;;17.69;91.78;101307.03;4994909;28;20072;-69
2022/07/26 04:15:41;;;;;;;10.65;2.03;;;;;;;17.78;92.10;101308.34;4995825;28;20034;-69
2022/07/26 04:18:06;;;;;;;6.57;2.08;;;;;;;17.84;91.59;101312.69;4995724;28;20042;-69
2022/07/26 04:20:31;;;;;;;5.72;1.70;;;;;;;17.90;91.55;101313.63;4995654;28;20051;-69
2022/07/26 04:22:57;;;;;;;7.15;2.28;;;;;;;17.87;93.07;101329.78;4995758;28;20038;-70
2022/07/26 04:25:22;;;;;;;6.15;2.05;;;;;;;17.88;94.86;101326.13;4995654;28;20014;-70
2022/07/26 04:27:47;;;;;;;7.70;2.00;;;;;;;17.85;96.34;101327.34;4994158;28;20034;-71
2022/07/26 04:30:12;;;;;;;7.15;2.20;;;;;;;17.82;96.73;101327.81;4995664;28;20077;-70
2022/07/26 04:32:38;;;;;;;7.78;2.08;;;;;;;17.89;98.02;101333.72;4995531;28;20018;-68
2022/07/26 04:35:04;;;;;;;9.60;2.10;;;;;;;17.99;98.15;101328.78;4995294;28;20018;-70
2022/07/26 04:37:31;;;;;;;7.72;2.13;;;;;;;18.02;98.68;101333.56;4995593;28;20501;-70
2022/07/26 04:39:57;;;;;;;7.00;1.77;;;;;;;17.95;97.90;101335.47;4995593;28;20434;-69
2022/07/26 04:42:22;;;;;;;9.18;2.35;;;;;;;17.91;98.98;101338.75;4995492;28;20056;-69
2022/07/26 04:44:47;;;;;;;8.55;2.35;;;;;;;17.88;99.77;101341.81;4995256;28;20105;-69
2022/07/26 04:47:13;;;;;;;12.32;2.50;;;;;;;17.87;100.00;101354.09;4994060;28;20125;-70
2022/07/26 04:49:38;;;;;;;15.43;3.30;;;;;;;17.81;100.00;101347.94;4995205;28;20022;-69
2022/07/26 04:52:03;;;;;;;9.23;2.75;;;;;;;17.83;100.00;101352.13;4995232;28;20367;-69
2022/07/26 04:54:29;;;;;;;7.97;2.30;;;;;;;17.72;100.00;101358.84;4994994;28;20113;-70
2022/07/26 04:56:54;;;;;;;7.70;2.30;;;;;;;17.67;100.00;101354.31;4995266;28;20034;-70
2022/07/26 04:59:19;;;;;;;6.40;2.30;;;;;;;17.75;100.00;101354.00;4995237;28;20057;-70
2022/07/26 05:01:45;;;;;;;7.63;2.15;;;;;;;17.81;100.00;101354.97;4995225;28;20034;-69
2022/07/26 05:04:10;;;;;;;9.55;2.25;;;;;;;17.76;100.00;101357.41;4995158;28;20026;-69
2022/07/26 05:06:35;;;;;;;6.90;2.03;;;;;;;17.79;100.00;101354.38;4993566;28;20050;-69
2022/07/26 05:09:01;;;;;;;13.13;2.13;;;;;;;17.78;100.00;101377.13;4993626;28;20069;-70
2022/07/26 05:11:26;;;;;;;6.75;2.13;;;;;;;17.80;100.00;101369.84;4994837;28;20161;-69
2022/07/26 05:13:51;;;;;;;11.48;2.45;;;;;;;17.89;100.00;101374.78;4993754;28;20041;-70
2022/07/26 05:16:16;;;;;;;7.93;1.90;;;;;;;17.88;100.00;101378.41;4993661;28;20042;-70
2022/07/26 05:18:42;;;;;;;6.18;1.75;;;;;;;17.96;100.00;101380.72;4993215;28;20122;-69
2022/07/26 05:21:07;;;;;;;9.02;2.30;;;;;;;18.09;100.00;101379.75;4994871;28;20018;-71
2022/07/26 05:23:32;;;;;;;10.10;1.90;;;;;;;17.90;100.00;101379.00;4993283;28;20022;-69
2022/07/26 05:25:58;;;;;;;7.88;1.73;;;;;;;17.84;100.00;101379.84;4992798;28;20022;-70
2022/07/26 05:28:23;;;;;;;7.22;2.08;;;;;;;18.03;100.00;101379.59;4993340;28;20030;-69
2022/07/26 05:30:49;;;;;;;9.90;1.90;;;;;;;18.14;100.00;101403.41;4993490;28;20034;-69
2022/07/26 05:33:14;;;;;;;7.60;1.58;;;;;;;17.91;100.00;101391.03;4994572;28;20034;-70
2022/07/26 05:35:39;;;;;;;9.75;1.90;;;;;;;17.96;100.00;101404.25;4993295;28;20481;-69
2022/07/26 05:38:05;;;;;;;11.63;1.83;;;;;;;17.72;100.00;101401.50;4994632;28;20034;-70
2022/07/26 05:40:30;;;;;;;15.00;1.90;;;;;;;17.86;100.00;101403.97;4994502;28;20369;-69
2022/07/26 05:42:56;;;;;;;6.18;1.70;;;;;;;17.92;100.00;101411.72;4993205;28;20057;-70
2022/07/26 05:45:21;;;;;;;8.57;1.65;;;;;;;17.80;100.00;101408.25;4994500;28;20088;-70
2022/07/26 05:47:50;;;;;;;8.65;1.58;;;;;;;17.79;99.86;101414.50;4993055;28;20105;-69
2022/07/26 05:50:16;;;;;;;5.20;1.52;;;;;;;17.90;99.86;101416.41;4993426;28;20034;-69
2022/07/26 05:52:41;;;;;;;9.02;1.40;;;;;;;17.85;99.78;101413.63;4994107;28;20081;-69
2022/07/26 05:55:07;;;;;;;12.10;1.75;;;;;;;17.91;99.33;101419.81;4994205;28;20109;-69
2022/07/26 05:57:32;;;;;;;13.13;1.55;;;;;;;17.89;100.00;101422.63;4994332;28;20026;-69
2022/07/26 05:59:57;;;;;;;10.02;1.70;;;;;;;17.85;98.88;101425.91;4994240;28;20077;-70
2022/07/26 06:02:23;;;;;;;7.40;1.50;;;;;;;17.84;100.00;101427.72;4992869;28;20423;-70
2022/07/26 06:04:48;;;;;;;6.43;1.38;;;;;;;17.86;97.87;101430.91;4994108;28;20492;-69
2022/07/26 06:07:14;;;;;;;5.93;1.50;;;;;;;17.95;97.75;101442.69;4992622;28;20434;-70
2022/07/26 06:09:39;;;;;;;8.13;1.33;;;;;;;17.81;97.36;101436.81;4994276;28;20019;-69
2022/07/26 06:12:05;;;;;;;6.90;1.50;;;;;;;17.71;95.95;101444.31;4994310;28;20045;-70
2022/07/26 06:14:30;;;;;;;8.10;1.52;;;;;;;17.74;98.84;101440.47;4994167;28;20026;-69
2022/07/26 06:16:55;;;;;;;12.95;2.17;;;;;;;17.77;98.16;101440.81;4992640;28;20026;-71
2022/07/26 06:19:21;;;;;;;7.25;1.40;;;;;;;17.75;98.79;101448.13;4993717;28;20081;-69
2022/07/26 06:21:47;;;;;;;8.32;1.70;;;;;;;17.85;98.22;101442.38;4994591;28;20458;-69
2022/07/26 06:24:12;;;;;;;9.98;1.63;;;;;;;18.05;97.52;101457.84;4994296;28;20026;-69
2022/07/26 06:26:37;;;;;;;7.78;1.80;;;;;;;18.04;97.13;101459.66;4992776;28;20030;-69
2022/07/26 06:29:03;;;;;;;8.30;1.80;;;;;;;18.16;96.46;101469.41;4994080;28;20014;-69
2022/07/26 06:31:28;;;;;;;9.43;1.65;;;;;;;18.25;95.20;101470.69;4994027;28;20029;-69
2022/07/26 06:33:54;;;;;;;9.48;1.30;;;;;;;18.25;94.62;101471.47;4992784;28;20026;-69
2022/07/26 06:36:19;;;;;;;10.25;1.63;;;;;;;18.16;92.77;101474.63;4994090;28;20034;-71
2022/07/26 06:38:44;;;;;;;9.80;1.45;;;;;;;18.04;93.86;101480.59;4995613;28;20027;-69
2022/07/26 06:41:09;;;;;;;11.48;1.55;;;;;;;17.87;95.32;101482.19;4998002;28;20482;-70
2022/07/26 06:43:35;;;;;;;7.15;1.45;;;;;;;17.84;95.99;101495.72;4997929;28;20110;-70
2022/07/26 06:46:00;;;;;;;9.13;1.40;;;;;;;17.89;95.31;101497.66;5000774;28;20037;-73
2022/07/26 06:48:25;;;;;;;10.57;1.75;;;;;;;17.83;94.52;101493.28;5006611;28;20026;-70
2022/07/26 06:50:51;;;;;;;10.70;1.60;;;;;;;17.76;92.60;101498.56;5004181;28;20058;-72
2022/07/26 06:53:16;;;;;;;7.35;1.35;;;;;;;17.94;94.21;101497.81;5005638;28;20034;-72
2022/07/26 06:55:42;;;;;;;6.95;1.45;;;;;;;17.98;94.47;101504.19;5003410;28;20026;-72
2022/07/26 06:58:07;;;;;;;5.90;1.38;;;;;;;17.95;92.45;101502.81;5003460;28;20037;-73
2022/07/26 07:00:32;;;;;;;11.07;1.95;;;;;;;17.99;94.86;101505.81;5002828;28;20092;-72
2022/07/26 07:02:58;;;;;;;6.88;1.30;;;;;;;18.03;93.27;101518.19;5002945;28;20033;-69
2022/07/26 07:05:23;;;;;;;8.35;1.40;;;;;;;18.07;92.97;101521.19;5000968;28;20366;-72
2022/07/26 07:07:48;;;;;;;8.23;1.50;;;;;;;17.97;90.62;101524.31;4997273;28;20032;-69
2022/07/26 07:10:14;;;;;;;5.78;1.38;;;;;;;18.20;90.95;101523.66;4998607;28;20093;-69
2022/07/26 07:12:40;;;;;;;6.25;1.20;;;;;;;18.46;90.84;101532.19;4996588;28;20480;-70
2022/07/26 07:15:06;;;;;;;7.07;1.15;;;;;;;18.48;89.80;101530.16;4997739;28;20045;-70
2022/07/26 07:17:31;;;;;;;9.00;1.17;;;;;;;18.16;88.51;101538.19;4999475;28;20034;-69
2022/07/26 07:19:56;;;;;;;8.32;1.10;;;;;;;18.63;86.57;101537.63;4999998;28;20054;-69
2022/07/26 07:22:22;;;;;;;4.80;0.88;;;;;;;18.66;84.23;101530.13;4999254;28;20022;-70
2022/07/26 07:24:47;;;;;;;7.93;1.20;;;;;;;18.83;84.90;101530.31;4997682;28;20038;-70
2022/07/26 07:27:13;;;;;;;5.10;0.90;;;;;;;19.05;84.59;101545.53;4999362;28;20089;-70
2022/07/26 07:29:39;;;;;;;5.43;1.08;;;;;;;19.32;82.84;101538.84;4998452;28;20034;-71
2022/07/26 07:32:05;;;;;;;5.18;0.80;;;;;;;19.49;82.63;101544.22;4999287;28;20053;-70
2022/07/26 07:34:30;;;;;;;4.05;0.90;;;;;;;19.48;82.89;101553.09;4997930;28;20054;-72
2022/07/26 07:36:56;;;;;;;5.80;1.00;;;;;;;19.22;82.23;101556.97;4997930;28;20431;-70
2022/07/26 07:39:21;;;;;;;4.53;0.90;;;;;;;19.42;81.75;101555.81;4996497;28;20411;-70
2022/07/26 07:41:47;;;;;;;5.30;1.00;;;;;;;19.37;82.43;101549.44;4997165;28;20497;-69
2022/07/26 07:44:13;;;;;;;5.70;1.00;;;;;;;19.91;80.42;101548.53;4996787;28;20027;-69
2022/07/26 07:46:39;;;;;;;4.60;1.00;;;;;;;20.14;78.05;101545.06;4995413;28;20377;-70
2022/07/26 07:49:05;;;;;;;5.00;0.93;;;;;;;21.27;75.48;101540.81;4996307;28;20045;-70
2022/07/26 07:51:32;;;;;;;5.50;0.93;;;;;;;21.79;69.96;101547.63;4995348;28;20113;-69
2022/07/26 07:53:57;;;;;;;6.53;1.00;;;;;;;21.05;72.29;101539.94;4996444;28;20508;-70
2022/07/26 07:56:22;;;;;;;6.05;1.27;;;;;;;20.95;73.70;101543.19;4995307;28;20117;-70
2022/07/26 07:58:49;;;;;;;5.18;1.10;;;;;;;21.25;71.82;101555.22;4996545;28;20068;-69
2022/07/26 08:01:14;;;;;;;3.55;1.00;;;;;;;21.10;71.92;101555.78;4996447;28;20037;-70
2022/07/26 08:03:40;;;;;;;4.20;1.17;;;;;;;20.93;72.52;101563.66;4996362;28;20022;-70
2022/07/26 08:06:07;;;;;;;3.45;1.10;;;;;;;20.99;73.59;101561.91;4995174;28;20018;-69
2022/07/26 08:08:33;;;;;;;7.70;1.42;;;;;;;20.86;71.62;101561.19;4994767;28;20461;-70
2022/07/26 08:10:58;;;;;;;6.70;1.40;;;;;;;20.44;74.55;101569.31;4995991;28;20045;-70
2022/07/26 08:13:24;;;;;;;8.73;1.60;;;;;;;20.27;75.41;101573.69;4996247;28;20026;-70
2022/07/26 08:15:50;;;;;;;5.57;1.30;;;;;;;20.42;74.34;101581.84;4996071;28;20057;-70
2022/07/26 08:18:15;;;;;;;7.30;1.20;;;;;;;20.51;72.68;101582.28;4995827;28;20022;-70
2022/07/26 08:20:41;;;;;;;5.35;0.95;;;;;;;20.62;70.70;101578.06;4995869;28;20064;-70
2022/07/26 08:23:06;;;;;;;5.88;1.13;;;;;;;21.22;69.58;101585.41;4994554;28;20466;-69
2022/07/26 08:25:31;;;;;;;3.95;0.80;;;;;;;21.49;66.99;101590.88;4995843;28;20029;-68
2022/07/26 08:27:56;;;;;;;3.33;0.73;;;;;;;21.66;65.35;101587.41;4995601;28;20038;-70
2022/07/26 08:30:22;;;;;;;7.22;0.98;;;;;;;21.60;62.05;101592.59;4994209;28;20363;-68
2022/07/26 08:32:47;;;;;;;5.80;0.95;;;;;;;20.90;64.91;101593.81;4994420;28;20035;-71
2022/07/26 08:35:12;;;;;;;6.85;1.60;;;;;;;20.87;65.99;101593.50;4995861;28;20022;-71
2022/07/26 08:37:38;;;;;;;5.45;1.30;;;;;;;20.92;65.01;101602.25;4995622;28;20101;-71
2022/07/26 08:40:04;;;;;;;6.03;1.00;;;;;;;21.01;66.35;101597.41;4995662;28;20049;-70
2022/07/26 08:42:29;;;;;;;5.72;1.20;;;;;;;20.91;66.29;101591.97;4994211;28;20386;-70
2022/07/26 08:44:54;;;;;;;10.70;1.38;;;;;;;21.31;66.31;101605.00;4993979;28;20034;-71
2022/07/26 08:47:21;;;;;;;6.00;0.80;;;;;;;21.26;68.33;101612.00;4995238;28;20033;-69
2022/07/26 08:49:46;;;;;;;5.90;1.30;;;;;;;20.92;68.61;101610.16;4995278;28;20022;-69
2022/07/26 08:52:13;;;;;;;9.30;1.38;;;;;;;20.41;70.93;101618.84;4993778;28;20347;-68
2022/07/26 08:54:46;;;;;;;9.95;1.20;;;;;;;20.31;70.81;101619.44;4995211;28;20101;-70
2022/07/26 08:57:13;;;;;;;6.43;1.15;;;;;;;20.04;71.71;101621.75;4995287;28;20378;-69
2022/07/26 08:59:38;;;;;;;5.07;0.80;;;;;;;19.98;72.31;101620.84;4995147;28;20470;-70
2022/07/26 09:02:07;;;;;;;11.38;1.48;;;;;;;20.91;69.26;101620.88;4992937;28;20142;-71
2022/07/26 09:04:34;;;;;;;6.55;1.30;;;;;;;20.79;69.20;101633.28;4995045;28;20073;-70
2022/07/26 09:07:10;;;;;;;5.97;1.17;;;;;;;21.44;67.60;101629.44;4994952;28;20022;-68
2022/07/26 09:09:38;;;;;;;7.53;1.40;;;;;;;22.05;65.75;101631.13;4994860;28;20478;-70
2022/07/26 09:12:16;;;;;;;6.68;1.23;;;;;;;21.53;66.58;101634.06;4994709;28;20102;-70
2022/07/26 09:14:41;;;;;;;4.55;1.30;;;;;;;20.92;70.92;101646.13;4994796;28;20097;-70
2022/07/26 09:17:07;;;;;;;6.25;1.20;;;;;;;22.03;66.64;101650.81;4993687;28;20117;-69
2022/07/26 09:19:33;;;;;;;8.15;1.17;;;;;;;21.52;66.73;101645.63;4994447;28;20463;-70
2022/07/26 09:22:07;;;;;;;9.43;1.20;;;;;;;20.81;68.22;101654.84;4994727;28;20033;-69
2022/07/26 09:24:44;;;;;;;9.10;1.60;;;;;;;20.34;68.94;101660.16;4993233;28;20422;-68
2022/07/26 09:27:12;;;;;;;5.25;1.13;;;;;;;19.98;70.72;101659.41;4994704;28;20030;-70
2022/07/26 09:29:49;;;;;;;8.05;1.25;;;;;;;20.24;71.38;101664.19;4994650;28;20069;-70
2022/07/26 09:32:20;;;;;;;11.60;1.23;;;;;;;20.29;68.37;101664.28;4994524;28;20029;-72
2022/07/26 09:34:48;;;;;;;7.88;1.10;;;;;;;20.11;66.35;101663.59;4994525;28;20417;-71
2022/07/26 09:37:15;;;;;;;3.17;0.80;;;;;;;20.42;65.60;101667.69;4994565;28;20125;-69
2022/07/26 09:39:57;;;;;;;3.05;0.98;;;;;;;20.57;65.26;101660.19;4994502;28;20501;-70
2022/07/26 09:42:25;;;;;;;4.22;0.73;;;;;;;20.65;65.83;101666.88;4993308;28;20030;-71
2022/07/26 09:44:50;;;;;;;6.60;1.10;;;;;;;21.14;63.74;101668.06;4994308;28;20473;-69
2022/07/26 09:47:16;;;;;;;7.78;1.20;;;;;;;21.43;63.56;101667.25;4992965;28;20026;-70
2022/07/26 09:49:42;;;;;;;4.68;1.10;;;;;;;21.68;61.54;101672.16;4992939;28;20061;-69
2022/07/26 09:52:18;;;;;;;6.50;0.93;;;;;;;21.43;62.39;101680.41;4994234;28;20409;-70
2022/07/26 09:54:45;;;;;;;3.92;0.70;;;;;;;21.27;59.19;101679.34;4994390;28;20022;-71
2022/07/26 09:57:13;;;;;;;6.30;1.30;;;;;;;21.74;57.38;101677.25;4994591;28;20029;-68
2022/07/26 09:59:38;;;;;;;3.83;0.88;;;;;;;22.56;55.79;101678.41;4994347;28;20058;-70
2022/07/26 10:02:04;;;;;;;3.05;0.95;;;;;;;22.47;56.42;101678.03;4994197;28;20029;-71
2022/07/26 10:04:29;;;;;;;3.95;0.82;;;;;;;22.61;57.45;101688.19;4992807;28;20453;-70
2022/07/26 10:07:00;;;;;;;7.65;0.85;;;;;;;22.29;57.84;101692.28;4993953;28;20030;-69
2022/07/26 10:09:33;;;;;;;5.68;1.02;;;;;;;21.77;59.80;101697.00;4994069;28;20517;-70
2022/07/26 10:12:02;;;;;;;5.28;1.20;;;;;;;21.10;63.19;101706.38;4993130;28;20375;-70
2022/07/26 10:14:39;;;;;;;3.75;0.93;;;;;;;20.38;65.28;101708.56;4998027;28;20101;-71
2022/07/26 10:17:29;;;;;;;5.63;1.08;;;;;;;20.12;67.10;101710.63;4997850;28;20461;-70
2022/07/26 10:19:56;;;;;;;5.75;1.10;;;;;;;20.07;65.90;101710.50;4997950;28;20605;-70
2022/07/26 10:22:24;;;;;;;6.90;1.15;;;;;;;20.20;66.44;101720.00;4997762;28;20023;-70
2022/07/26 10:24:50;;;;;;;5.65;1.20;;;;;;;20.17;66.31;101723.03;4996424;28;20033;-71
2022/07/26 10:27:35;;;;;;;7.63;1.23;;;;;;;20.32;66.52;101720.00;4997954;28;20022;-70
2022/07/26 10:30:16;;;;;;;7.00;1.33;;;;;;;20.67;64.08;101712.09;4996563;28;20022;-70
2022/07/26 10:32:53;;;;;;;5.95;0.95;;;;;;;20.93;61.77;101724.69;4996742;28;20030;-70
2022/07/26 10:35:37;;;;;;;7.40;1.40;;;;;;;21.36;62.09;101720.81;4996550;28;20023;-71
2022/07/26 10:38:05;;;;;;;4.20;1.00;;;;;;;22.14;58.67;101725.47;4997654;28;20034;-70
2022/07/26 10:40:31;;;;;;;8.25;1.20;;;;;;;21.84;58.48;101730.03;4996388;28;20374;-71
2022/07/26 10:43:10;;;;;;;6.60;1.15;;;;;;;22.13;59.00;101726.50;4996209;28;20042;-70
2022/07/26 10:45:36;;;;;;;5.25;0.90;;;;;;;22.88;53.44;101720.66;4997829;28;20069;-69
2022/07/26 10:48:23;;;;;;;6.20;0.85;;;;;;;23.14;55.27;101715.69;4997657;28;20022;-72
2022/07/26 10:50:51;;;;;;;5.85;1.02;;;;;;;23.88;52.19;101720.34;4980532;28;20031;-69
2022/07/26 10:53:22;;;;;;;2.42;0.68;;;;;;;24.00;51.64;101718.28;4996150;28;20193;-69
2022/07/26 10:55:56;;;;;;;3.05;0.90;;;;;;;24.08;50.12;101719.66;4995898;28;20024;-71
2022/07/26 10:58:23;;;;;;;2.50;0.75;;;;;;;23.33;52.85;101722.22;4997376;28;20113;-69
2022/07/26 11:00:57;;;;;;;4.15;0.90;;;;;;;24.24;52.01;101718.69;4997147;28;20026;-70
2022/07/26 11:03:23;;;;;;;6.75;1.05;;;;;;;23.69;52.14;101722.53;4997343;28;20454;-70
2022/07/26 11:05:49;;;;;;;7.65;1.23;;;;;;;23.69;52.65;101733.06;4997420;28;20022;-71
2022/07/26 11:08:14;;;;;;;8.18;1.60;;;;;;;23.49;51.51;101735.53;4995829;28;20031;-70
2022/07/26 11:10:44;;;;;;;9.63;1.85;;;;;;;23.69;52.14;101738.34;4997435;28;20110;-71
2022/07/26 11:13:13;;;;;;;7.07;1.55;;;;;;;22.08;55.97;101735.91;4995861;28;20054;-69
2022/07/26 11:15:47;;;;;;;6.28;1.52;;;;;;;21.99;56.12;101742.63;4995906;28;20053;-69
2022/07/26 11:18:23;;;;;;;12.43;1.70;;;;;;;21.59;58.51;101748.03;4997114;28;20114;-70
2022/07/26 11:20:52;;;;;;;7.43;1.80;;;;;;;21.22;59.71;101758.88;4997191;28;20042;-70
2022/07/26 11:23:33;;;;;;;13.85;2.50;;;;;;;20.90;62.35;101767.19;4995364;28;20489;-70